Time;durP1;ratioP1;P1;durP2;ratioP2;P2;SDS_P1;SDS_P2;PMS_P1;PMS_P2;Temp;Humidity;BMP_temperature;BMP_pressure;BME280_temperature;BME280_humidity;BME280_pressure;Samples;Min_cycle;Max_cycle;Signal;HPM_P1;HPM_P2
2021/12/07 00:02:11;;;;;;;;;1.25;1.25;;;;;7.84;73.26;101003.13;5026820;28;45339;-55
2021/12/07 00:04:38;;;;;;;;;3.00;2.00;;;;;7.86;73.34;101017.00;5027522;28;45485;-51
2021/12/07 00:07:05;;;;;;;;;5.00;2.00;;;;;7.88;73.33;101036.16;5030672;28;45423;-53
2021/12/07 00:09:31;;;;;;;;;4.50;1.50;;;;;7.89;73.35;101034.38;5027206;28;45564;-50
2021/12/07 00:11:56;;;;;;;;;4.50;1.00;;;;;7.89;73.36;101018.66;5027777;28;45437;-54
2021/12/07 00:14:26;;;;;;;;;3.25;1.50;;;;;7.88;73.14;101028.28;5024258;28;45452;-52
2021/12/07 00:16:54;;;;;;;;;3.25;1.00;;;;;7.87;73.36;101023.97;5031008;28;45510;-53
2021/12/07 00:19:20;;;;;;;;;4.00;1.00;;;;;7.87;73.47;101017.88;5028009;28;45448;-54
2021/12/07 00:21:47;;;;;;;;;11.00;3.00;;;;;7.87;73.19;101020.50;5027326;28;45468;-53
2021/12/07 00:24:13;;;;;;;;;6.00;0.75;;;;;7.84;73.34;101013.63;5025334;28;45555;-51
2021/12/07 00:26:41;;;;;;;;;5.00;1.50;;;;;7.82;73.27;101016.31;5030195;28;45439;-53
2021/12/07 00:29:09;;;;;;;;;4.00;0.50;;;;;7.81;73.53;101016.34;5032689;28;45301;-54
2021/12/07 00:31:44;;;;;;;;;10.50;2.00;;;;;7.80;73.49;101019.91;5028916;28;46735;-50
2021/12/07 00:34:24;;;;;;;;;4.50;2.25;;;;;7.81;73.41;101026.84;5029986;28;45487;-51
2021/12/07 00:36:49;;;;;;;;;1.75;1.00;;;;;7.80;73.52;101028.63;5043948;28;45457;-49
2021/12/07 00:39:18;;;;;;;;;4.75;0.25;;;;;7.81;73.24;101032.94;5032093;28;45299;-52
2021/12/07 00:41:44;;;;;;;;;1.50;1.00;;;;;7.82;73.33;101026.81;5028293;28;45294;-53
2021/12/07 00:44:10;;;;;;;;;2.00;1.00;;;;;7.86;73.30;101037.16;5031044;28;45374;-56
2021/12/07 00:46:36;;;;;;;;;1.00;1.00;;;;;7.88;73.25;101025.66;5030496;28;45274;-54
2021/12/07 00:49:04;;;;;;;;;2.25;1.00;;;;;7.92;72.99;101035.13;5031898;28;45649;-54
2021/12/07 00:51:30;;;;;;;;;3.00;1.50;;;;;7.96;73.25;101033.19;5027476;28;45211;-54
2021/12/07 00:53:56;;;;;;;;;2.00;0.00;;;;;7.99;73.01;101035.72;5030829;28;45626;-55
2021/12/07 00:56:22;;;;;;;;;0.00;0.00;;;;;7.98;72.94;101042.72;5030968;28;45607;-56
2021/12/07 00:58:49;;;;;;;;;6.00;1.25;;;;;8.01;72.66;101033.84;5030743;28;45380;-57
2021/12/07 01:01:18;;;;;;;;;2.00;0.50;;;;;8.04;72.73;101038.97;5032145;28;45311;-55
2021/12/07 01:03:44;;;;;;;;;3.00;1.00;;;;;8.03;72.30;101045.97;5029398;28;45450;-52
2021/12/07 01:08:55;;;;;;;;;2.25;1.00;;;;;8.06;72.38;101051.13;5034609;28;45447;-55
2021/12/07 01:25:09;;;;;;;;;1.50;0.00;;;;;8.06;71.32;101029.28;5020895;28;45507;-57
2021/12/07 01:27:35;;;;;;;;;2.00;1.25;;;;;8.01;70.93;101028.63;5027059;28;45518;-53
2021/12/07 01:30:09;;;;;;;;;0.00;0.00;;;;;7.94;70.95;101020.16;5030643;28;45582;-55
2021/12/07 01:33:10;;;;;;;;;0.50;0.00;;;;;7.88;70.80;101035.31;5028625;28;45439;-55
2021/12/07 01:43:53;;;;;;;;;0.50;0.00;;;;;7.68;71.12;101042.25;5025344;28;45630;-52
2021/12/07 01:51:43;;;;;;;;;3.00;1.00;;;;;7.63;71.36;101040.75;5027276;28;45451;-55
2021/12/07 01:59:38;;;;;;;;;1.00;0.00;;;;;7.53;71.39;101043.75;5020896;28;45523;-54
2021/12/07 02:02:15;;;;;;;;;1.00;1.00;;;;;7.52;71.43;101043.81;5020942;28;45300;-53
2021/12/07 02:04:42;;;;;;;;;0.50;0.00;;;;;7.51;71.42;101042.13;5020958;28;45521;-55
2021/12/07 02:07:08;;;;;;;;;0.00;0.00;;;;;7.52;71.32;101046.44;5020428;28;46336;-56
2021/12/07 02:09:36;;;;;;;;;0.00;0.00;;;;;7.50;71.13;101049.13;5021046;28;45449;-54
2021/12/07 02:12:03;;;;;;;;;2.75;1.00;;;;;7.51;71.35;101057.84;5020792;28;45449;-56
2021/12/07 02:14:30;;;;;;;;;1.00;0.00;;;;;7.50;71.55;101041.28;5020951;28;45518;-52
2021/12/07 02:16:58;;;;;;;;;2.00;0.00;;;;;7.51;71.53;101044.75;5020406;28;46362;-53
2021/12/07 02:19:24;;;;;;;;;4.50;0.50;;;;;7.51;71.21;101042.13;5022349;28;45622;-54
2021/12/07 02:21:52;;;;;;;;;1.00;0.00;;;;;7.49;71.22;101044.78;5025408;28;45525;-55
2021/12/07 02:24:17;;;;;;;;;1.25;0.00;;;;;7.50;71.26;101053.50;5028651;28;45696;-52
2021/12/07 02:26:43;;;;;;;;;2.00;1.00;;;;;7.47;71.17;101046.63;5021349;28;45364;-54
2021/12/07 02:29:10;;;;;;;;;1.00;0.00;;;;;7.47;70.86;101053.63;5000050;28;45353;-54
2021/12/07 02:31:36;;;;;;;;;0.00;0.00;;;;;7.45;70.97;101045.84;5027755;28;45542;-51
2021/12/07 02:34:03;;;;;;;;;0.25;0.00;;;;;7.44;70.80;101048.53;5020310;28;45499;-53
2021/12/07 02:36:29;;;;;;;;;2.75;0.00;;;;;7.42;71.20;101053.81;5020996;28;46145;-51
2021/12/07 02:38:55;;;;;;;;;0.00;0.00;;;;;7.40;71.37;101049.56;5021083;28;45391;-53
2021/12/07 02:41:21;;;;;;;;;0.50;0.00;;;;;7.38;71.13;101057.50;5020833;28;45335;-53
2021/12/07 02:43:47;;;;;;;;;0.00;0.00;;;;;7.37;70.51;101054.94;5021084;28;45610;-51
2021/12/07 02:46:13;;;;;;;;;1.00;0.00;;;;;7.37;71.04;101054.94;5020510;28;45354;-53
2021/12/07 02:48:38;;;;;;;;;0.75;0.00;;;;;7.37;70.85;101049.69;5020483;28;45232;-53
2021/12/07 02:51:04;;;;;;;;;0.00;0.00;;;;;7.37;70.72;101052.31;5020686;28;45349;-53
2021/12/07 02:53:32;;;;;;;;;0.25;0.00;;;;;7.36;70.92;101061.09;5021026;28;45249;-53
2021/12/07 02:56:00;;;;;;;;;5.00;0.00;;;;;7.34;70.56;101060.28;5019536;28;46092;-54
2021/12/07 02:58:26;;;;;;;;;0.00;0.00;;;;;7.34;70.38;101065.53;5020675;28;45257;-55
2021/12/07 03:01:03;;;;;;;;;0.00;0.00;;;;;7.35;70.70;101067.25;5021169;28;45252;-54
2021/12/07 03:03:33;;;;;;;;;0.00;0.00;;;;;7.39;70.63;101067.06;5020837;28;45511;-53
2021/12/07 03:09:09;;;;;;;;;0.00;0.00;;;;;7.45;70.92;101065.97;5020769;28;45352;-53
2021/12/07 03:27:57;;;;;;;;;2.50;0.75;;;;;7.45;71.20;101090.41;5020160;28;45320;-55
2021/12/07 03:30:23;;;;;;;;;1.00;1.00;;;;;7.51;71.53;101091.94;5020087;28;45430;-55
2021/12/07 03:32:49;;;;;;;;;1.00;1.00;;;;;7.54;71.25;101097.88;5020654;28;45324;-54
2021/12/07 03:35:15;;;;;;;;;1.00;1.00;;;;;7.59;71.23;101096.88;5020274;28;45535;-55
2021/12/07 03:37:41;;;;;;;;;1.75;1.25;;;;;7.61;70.91;101100.25;5020473;28;45286;-55
2021/12/07 03:40:08;;;;;;;;;1.75;1.25;;;;;7.63;71.23;101093.19;5020151;28;45670;-54
2021/12/07 03:42:34;;;;;;;;;2.00;0.25;;;;;7.62;70.95;101091.47;5020134;28;45285;-55
2021/12/07 03:44:59;;;;;;;;;0.25;0.00;;;;;7.60;71.09;101075.81;5020248;28;45310;-55
2021/12/07 03:47:25;;;;;;;;;3.00;1.00;;;;;7.59;71.20;101066.25;5020119;28;45626;-53
2021/12/07 03:49:50;;;;;;;;;3.00;1.00;;;;;7.56;71.39;101082.09;5020048;28;45362;-54
2021/12/07 03:52:16;;;;;;;;;1.75;1.75;;;;;7.55;71.03;101093.50;5020310;28;45318;-52
2021/12/07 03:54:41;;;;;;;;;1.25;0.75;;;;;7.55;70.94;101090.88;5020190;28;45357;-55
2021/12/07 03:57:07;;;;;;;;;1.50;1.00;;;;;7.53;71.10;101077.84;5019687;28;45440;-53
2021/12/07 03:59:33;;;;;;;;;1.75;1.00;;;;;7.48;71.42;101064.06;5019915;28;45291;-54
2021/12/07 04:01:59;;;;;;;;;1.00;1.00;;;;;7.43;71.38;101065.19;5020234;28;45475;-55
2021/12/07 04:04:24;;;;;;;;;2.00;1.00;;;;;7.39;71.28;101066.22;5020184;28;45391;-54
2021/12/07 04:06:50;;;;;;;;;2.00;0.00;;;;;7.34;71.06;101070.78;5020463;28;46526;-54
2021/12/07 04:09:16;;;;;;;;;0.50;0.00;;;;;7.32;71.47;101064.75;5023258;28;45323;-54
2021/12/07 04:11:41;;;;;;;;;1.25;0.00;;;;;7.26;71.35;101056.22;5023323;28;45355;-58
2021/12/07 04:14:07;;;;;;;;;4.00;1.00;;;;;7.23;71.43;101071.22;5023365;28;45605;-50
2021/12/07 04:16:34;;;;;;;;;1.00;0.50;;;;;7.19;71.36;101074.88;5023176;28;45314;-51
2021/12/07 04:19:00;;;;;;;;;0.50;0.25;;;;;7.15;71.34;101076.75;5023001;28;45333;-51
2021/12/07 04:21:25;;;;;;;;;1.50;0.00;;;;;7.12;71.56;101076.88;5023355;28;45313;-50
2021/12/07 04:23:51;;;;;;;;;3.00;1.00;;;;;7.09;71.72;101077.00;5022845;28;45564;-51
2021/12/07 04:26:17;;;;;;;;;3.00;1.00;;;;;7.06;72.00;101081.50;5021755;28;45482;-50
2021/12/07 04:28:43;;;;;;;;;1.00;0.00;;;;;7.04;71.71;101078.09;5022782;28;45461;-50
2021/12/07 04:31:11;;;;;;;;;0.00;0.00;;;;;7.02;72.09;101079.91;5023494;28;45434;-51
2021/12/07 04:33:37;;;;;;;;;2.25;1.00;;;;;7.00;71.74;101072.97;5023012;28;45457;-51
2021/12/07 04:36:05;;;;;;;;;2.75;0.25;;;;;6.97;71.71;101083.56;5023071;28;45532;-55
2021/12/07 04:38:30;;;;;;;;;1.00;0.00;;;;;6.96;71.54;101068.78;5022802;28;45425;-52
2021/12/07 04:40:56;;;;;;;;;2.00;0.00;;;;;6.94;72.10;101065.34;5022973;28;45436;-53
2021/12/07 04:43:22;;;;;;;;;3.00;0.00;;;;;6.89;71.53;101067.31;5022785;28;45324;-54
2021/12/07 04:48:52;;;;;;;;;1.00;0.75;;;;;6.89;72.02;101075.16;5022874;28;45351;-53
2021/12/07 04:59:42;;;;;;;;;2.25;0.00;;;;;6.79;71.93;101078.19;5022519;28;45383;-54
2021/12/07 05:02:08;;;;;;;;;2.75;0.50;;;;;6.78;72.38;101074.72;5022713;28;45599;-53
2021/12/07 05:04:35;;;;;;;;;1.25;1.25;;;;;6.78;71.81;101073.84;5022473;28;45344;-52
2021/12/07 05:07:49;;;;;;;;;2.50;1.00;;;;;6.74;71.81;101069.66;5022343;28;46234;-54
2021/12/07 05:10:38;;;;;;;;;0.75;0.75;;;;;6.71;72.20;101068.88;5008783;28;45232;-50
2021/12/07 05:15:44;;;;;;;;;4.50;0.50;;;;;6.70;72.10;101067.16;5022436;28;45281;-50
2021/12/07 05:34:42;;;;;;;;;3.00;0.00;;;;;6.59;72.41;101082.41;5022349;28;45237;-55
2021/12/07 05:39:53;;;;;;;;;4.00;0.75;;;;;6.59;72.59;101084.19;5021795;28;45231;-54
2021/12/07 05:42:21;;;;;;;;;1.00;0.75;;;;;6.59;72.13;101092.03;5021554;28;45292;-54
2021/12/07 05:44:47;;;;;;;;;2.75;1.25;;;;;6.60;72.60;101078.88;5022019;28;45397;-54
2021/12/07 05:47:12;;;;;;;;;3.00;0.25;;;;;6.61;73.08;101079.72;5021851;28;45369;-54
2021/12/07 05:49:38;;;;;;;;;2.50;1.00;;;;;6.59;72.91;101074.56;5021519;28;45830;-53
2021/12/07 05:52:04;;;;;;;;;5.50;1.00;;;;;6.57;73.20;101068.53;5021676;28;45319;-54
2021/12/07 05:54:30;;;;;;;;;4.50;1.50;;;;;6.57;72.54;101071.16;5021842;28;45335;-54
2021/12/07 05:56:55;;;;;;;;;4.75;3.00;;;;;6.57;72.73;101075.53;5021498;28;45366;-53
2021/12/07 05:59:21;;;;;;;;;5.75;2.50;;;;;6.57;72.41;101083.38;5021418;28;45746;-53
2021/12/07 06:01:47;;;;;;;;;4.00;2.75;;;;;6.55;72.89;101086.03;5021811;28;45305;-54
2021/12/07 06:04:12;;;;;;;;;2.00;1.75;;;;;6.54;72.47;101079.09;5021617;28;45237;-51
2021/12/07 06:06:39;;;;;;;;;2.50;2.00;;;;;6.53;72.48;101080.00;5021812;28;45459;-53
2021/12/07 06:09:05;;;;;;;;;2.50;2.00;;;;;6.53;72.71;101093.09;5021165;28;45511;-56
2021/12/07 06:11:31;;;;;;;;;1.00;0.50;;;;;6.52;72.57;101085.31;5021866;28;45700;-52
2021/12/07 06:13:56;;;;;;;;;6.00;3.00;;;;;6.52;72.75;101088.78;5021295;28;45457;-51
2021/12/07 06:16:24;;;;;;;;;4.50;2.00;;;;;6.52;73.30;101080.94;5021466;28;45328;-54
2021/12/07 06:18:50;;;;;;;;;4.25;2.00;;;;;6.52;73.17;101074.84;5020867;28;45425;-54
2021/12/07 06:21:15;;;;;;;;;6.00;2.00;;;;;6.51;72.69;101070.53;5021382;28;45419;-53
2021/12/07 06:23:41;;;;;;;;;3.00;2.00;;;;;6.53;73.29;101061.69;5020324;28;45339;-54
2021/12/07 06:26:07;;;;;;;;;6.75;3.50;;;;;6.57;72.55;101052.84;5021078;28;45476;-55
2021/12/07 06:28:33;;;;;;;;;8.25;8.25;;;;;6.59;72.81;101040.53;5020788;28;45332;-51
2021/12/07 06:30:59;;;;;;;;;6.75;1.75;;;;;6.62;73.08;101037.78;5023106;28;45447;-54
2021/12/07 06:33:27;;;;;;;;;20.25;15.50;;;;;6.63;72.63;101039.50;5004706;28;45352;-51
2021/12/07 06:35:59;;;;;;;;;8.75;3.00;;;;;6.62;72.52;101026.47;5013502;28;45600;-50
2021/12/07 06:38:29;;;;;;;;;2.75;2.75;;;;;6.62;72.81;101021.22;5023137;28;45423;-49
2021/12/07 06:40:55;;;;;;;;;7.50;5.75;;;;;6.61;72.77;101011.69;5023255;28;45319;-54
2021/12/07 06:43:22;;;;;;;;;3.00;3.00;;;;;6.60;73.01;101018.69;5020332;28;45318;-53
2021/12/07 06:45:48;;;;;;;;;5.00;2.75;;;;;6.59;73.13;101011.75;5021340;28;45399;-54
2021/12/07 06:48:13;;;;;;;;;7.50;6.00;;;;;6.57;73.06;101015.34;5022298;28;45312;-55
2021/12/07 06:50:39;;;;;;;;;2.50;2.50;;;;;6.58;72.82;101022.28;5028217;28;45249;-50
2021/12/07 06:53:05;;;;;;;;;2.50;2.50;;;;;6.55;72.32;101022.38;5020688;28;45353;-54
2021/12/07 06:55:31;;;;;;;;;3.50;3.00;;;;;6.51;72.79;101015.56;5021804;28;45416;-54
2021/12/07 06:57:56;;;;;;;;;2.75;0.50;;;;;6.51;72.79;101008.56;5029162;28;46038;-58
2021/12/07 07:00:22;;;;;;;;;13.75;3.50;;;;;6.50;72.67;101003.41;5009403;28;45324;-55
2021/12/07 07:02:48;;;;;;;;;7.00;4.50;;;;;6.50;73.44;100995.53;5005266;28;45502;-52
2021/12/07 07:05:14;;;;;;;;;9.75;5.00;;;;;6.51;72.84;100989.41;5020739;28;45445;-55
2021/12/07 07:07:41;;;;;;;;;12.00;6.00;;;;;6.51;72.57;100989.41;5020259;28;45440;-53
2021/12/07 07:10:08;;;;;;;;;4.00;3.50;;;;;6.49;72.96;100980.75;5020581;28;45423;-56
2021/12/07 07:12:34;;;;;;;;;6.00;4.50;;;;;6.50;73.24;100979.84;5019888;28;45299;-56
2021/12/07 07:14:59;;;;;;;;;6.25;5.75;;;;;6.48;73.18;100979.03;5020575;28;45220;-54
2021/12/07 07:17:25;;;;;;;;;8.00;5.75;;;;;6.47;73.53;100979.94;5019999;28;45831;-55
2021/12/07 07:19:50;;;;;;;;;13.25;9.00;;;;;6.45;73.34;100987.84;5020268;28;45168;-53
2021/12/07 07:22:16;;;;;;;;;6.50;5.75;;;;;6.43;72.80;100974.00;5020492;28;45391;-55
2021/12/07 07:24:43;;;;;;;;;8.25;6.50;;;;;6.41;73.22;100971.44;5020728;28;45584;-55
2021/12/07 07:27:09;;;;;;;;;14.25;9.00;;;;;6.42;73.49;100973.13;5018612;28;46187;-54
2021/12/07 07:29:35;;;;;;;;;9.25;8.50;;;;;6.41;72.98;100965.34;5019454;28;45260;-56
2021/12/07 07:32:01;;;;;;;;;15.50;11.50;;;;;6.42;73.31;100956.59;5019832;28;45381;-53
2021/12/07 07:34:27;;;;;;;;;14.50;11.00;;;;;6.42;73.29;100952.22;5020319;28;45304;-55
2021/12/07 07:36:52;;;;;;;;;16.00;10.75;;;;;6.42;73.44;100946.97;5019105;28;45420;-54
2021/12/07 07:39:18;;;;;;;;;14.00;10.00;;;;;6.41;73.97;100937.44;5019525;28;45301;-55
2021/12/07 07:41:44;;;;;;;;;15.50;10.50;;;;;6.43;73.63;100932.13;5020108;28;45403;-54
2021/12/07 07:44:09;;;;;;;;;24.00;13.75;;;;;6.43;73.77;100924.28;5034188;28;45566;-56
2021/12/07 07:46:35;;;;;;;;;15.00;14.00;;;;;6.44;73.51;100918.13;5025205;28;45482;-54
2021/12/07 07:49:00;;;;;;;;;16.00;10.75;;;;;6.46;73.29;100912.81;5023134;28;45211;-54
2021/12/07 07:51:26;;;;;;;;;18.25;13.00;;;;;6.47;74.06;100904.06;5023497;28;45369;-54
2021/12/07 07:53:54;;;;;;;;;15.75;12.50;;;;;6.47;73.71;100907.53;5023461;28;45510;-53
2021/12/07 07:56:20;;;;;;;;;19.50;15.25;;;;;6.48;73.93;100916.22;5022545;28;46019;-56
2021/12/07 07:58:46;;;;;;;;;16.00;13.50;;;;;6.49;74.35;100917.97;5023006;28;45340;-51
2021/12/07 08:01:11;;;;;;;;;19.25;14.25;;;;;6.51;74.17;100913.50;5024028;28;45296;-54
2021/12/07 08:03:37;;;;;;;;;18.00;13.25;;;;;6.53;74.07;100909.06;5023200;28;45389;-54
2021/12/07 08:06:02;;;;;;;;;29.00;18.50;;;;;6.56;74.11;100898.47;5022883;28;45311;-54
2021/12/07 08:08:28;;;;;;;;;13.25;9.50;;;;;6.56;73.79;100901.09;5022937;28;45262;-54
2021/12/07 08:10:53;;;;;;;;;22.25;17.75;;;;;6.58;73.98;100904.50;5023021;28;45454;-55
2021/12/07 08:13:19;;;;;;;;;19.00;18.50;;;;;6.58;73.65;100894.03;5023041;28;45291;-55
2021/12/07 08:15:46;;;;;;;;;20.25;17.00;;;;;6.58;73.98;100880.94;5022822;28;45484;-53
2021/12/07 08:18:13;;;;;;;;;32.25;26.00;;;;;6.58;73.39;100887.03;5022868;28;45320;-54
2021/12/07 08:20:39;;;;;;;;;19.25;18.00;;;;;6.57;73.98;100881.88;5022983;28;45389;-54
2021/12/07 08:23:06;;;;;;;;;28.00;20.25;;;;;6.59;73.77;100880.03;5022654;28;45438;-52
2021/12/07 08:25:35;;;;;;;;;22.75;16.50;;;;;6.60;73.76;100873.88;5022668;28;46227;-53
2021/12/07 08:28:01;;;;;;;;;20.00;18.00;;;;;6.60;74.23;100874.72;5022950;28;45296;-55
2021/12/07 08:30:27;;;;;;;;;25.00;18.25;;;;;6.60;74.05;100859.03;5022952;28;45341;-51
2021/12/07 08:32:52;;;;;;;;;21.25;17.00;;;;;6.62;73.97;100861.56;5023170;28;45317;-54
2021/12/07 08:35:19;;;;;;;;;33.50;19.50;;;;;6.64;74.13;100858.00;5022416;28;45421;-53
2021/12/07 08:37:48;;;;;;;;;31.50;23.50;;;;;6.70;73.81;100862.09;5022962;28;45308;-53
2021/12/07 08:40:19;;;;;;;;;23.00;23.00;;;;;6.74;74.09;100860.22;5022277;28;45555;-55
2021/12/07 08:42:45;;;;;;;;;23.50;19.50;;;;;6.79;73.52;100858.25;5022114;28;45534;-52
2021/12/07 08:45:10;;;;;;;;;25.75;20.00;;;;;6.86;73.46;100854.47;5022298;28;45336;-56
2021/12/07 08:47:36;;;;;;;;;40.50;31.75;;;;;6.92;73.81;100855.06;5022112;28;45479;-54
2021/12/07 08:50:06;;;;;;;;;25.00;18.00;;;;;6.96;73.27;100859.28;5022259;28;45302;-55
2021/12/07 08:52:32;;;;;;;;;24.50;24.00;;;;;6.96;73.48;100851.41;5022477;28;45343;-55
2021/12/07 09:00:26;;;;;;;;;25.00;19.75;;;;;6.94;72.84;100823.56;5024670;28;45295;-55
2021/12/07 09:02:52;;;;;;;;;24.75;20.00;;;;;6.95;73.28;100814.78;5024181;28;45487;-55
2021/12/07 09:05:17;;;;;;;;;27.75;21.00;;;;;6.97;73.41;100820.84;5023532;28;45315;-55
2021/12/07 09:07:44;;;;;;;;;27.25;24.00;;;;;6.95;73.37;100802.56;5032881;28;45402;-53
2021/12/07 09:10:10;;;;;;;;;31.50;24.25;;;;;6.94;73.14;100785.13;5022706;28;45375;-55
2021/12/07 09:12:36;;;;;;;;;32.50;24.00;;;;;6.91;73.21;100780.03;5024197;28;45409;-56
2021/12/07 09:15:03;;;;;;;;;24.75;15.75;;;;;6.89;72.95;100773.19;5021935;28;45221;-56
2021/12/07 09:17:28;;;;;;;;;32.00;27.25;;;;;6.90;73.17;100769.66;5035721;28;45331;-56
2021/12/07 09:19:54;;;;;;;;;26.25;20.75;;;;;6.89;73.61;100775.81;5022237;28;45424;-55
2021/12/07 09:22:19;;;;;;;;;33.50;22.50;;;;;6.87;73.11;100770.63;5033303;28;45331;-56
2021/12/07 09:24:45;;;;;;;;;27.75;21.75;;;;;6.87;73.44;100764.53;5021542;28;46079;-55
2021/12/07 09:27:11;;;;;;;;;21.50;15.75;;;;;6.87;73.61;100747.06;5034066;28;45212;-56
2021/12/07 09:29:37;;;;;;;;;19.75;14.75;;;;;6.89;73.76;100737.38;5022160;28;45330;-52
2021/12/07 09:32:03;;;;;;;;;18.50;16.25;;;;;6.89;73.50;100737.38;5033349;28;45434;-52
2021/12/07 09:34:29;;;;;;;;;21.25;15.75;;;;;6.88;73.25;100743.53;5021834;28;45998;-56
2021/12/07 09:36:55;;;;;;;;;24.75;19.00;;;;;6.87;73.37;100749.69;5031692;28;45407;-56
2021/12/07 09:39:21;;;;;;;;;26.00;17.50;;;;;6.85;73.92;100756.75;5021873;28;45427;-54
2021/12/07 09:41:47;;;;;;;;;28.00;23.25;;;;;6.83;73.87;100760.34;5021400;28;45296;-54
2021/12/07 09:44:13;;;;;;;;;33.00;23.50;;;;;6.81;73.94;100759.56;5021850;28;45588;-56
2021/12/07 09:46:41;;;;;;;;;31.00;18.50;;;;;6.80;73.96;100757.88;5019325;28;45433;-56
2021/12/07 09:49:08;;;;;;;;;32.00;22.50;;;;;6.82;74.26;100753.41;4999827;28;45415;-54
2021/12/07 09:51:34;;;;;;;;;24.75;18.75;;;;;6.84;74.47;100760.28;5000203;28;45471;-54
2021/12/07 09:54:00;;;;;;;;;21.75;14.50;;;;;6.88;74.18;100755.78;5011525;28;45522;-55
2021/12/07 09:56:26;;;;;;;;;17.50;15.75;;;;;6.89;74.28;100739.16;5021292;28;45311;-53
2021/12/07 09:58:54;;;;;;;;;23.00;14.50;;;;;6.91;74.17;100737.31;5021737;28;45231;-54
2021/12/07 10:01:21;;;;;;;;;13.25;10.75;;;;;6.94;73.66;100727.53;5021718;28;45449;-54
2021/12/07 10:03:47;;;;;;;;;11.75;9.75;;;;;6.99;73.96;100737.81;5020594;28;45623;-54
2021/12/07 10:06:13;;;;;;;;;11.50;11.00;;;;;7.04;73.36;100743.72;5018706;28;45759;-55
2021/12/07 10:08:39;;;;;;;;;18.75;16.75;;;;;7.05;73.68;100749.78;5019388;28;45652;-55
2021/12/07 10:11:07;;;;;;;;;12.25;11.25;;;;;7.05;73.97;100741.94;5019351;28;45542;-53
2021/12/07 10:13:34;;;;;;;;;12.50;11.75;;;;;7.04;73.59;100741.09;5018922;28;45553;-53
2021/12/07 10:16:04;;;;;;;;;19.25;9.50;;;;;7.07;73.61;100734.84;5018770;28;45455;-55
2021/12/07 10:18:32;;;;;;;;;14.25;10.00;;;;;7.11;73.75;100721.56;5019016;28;45696;-55
2021/12/07 10:21:03;;;;;;;;;17.00;13.25;;;;;7.17;73.68;100707.31;5021280;28;45278;-54
2021/12/07 10:23:37;;;;;;;;;16.25;11.00;;;;;7.17;73.65;100697.69;5007866;28;45344;-55
2021/12/07 10:26:12;;;;;;;;;12.75;10.50;;;;;7.15;73.68;100689.06;5021113;28;45394;-53
2021/12/07 10:28:40;;;;;;;;;15.25;11.75;;;;;7.17;73.60;100679.34;5020810;28;45340;-54
2021/12/07 10:31:08;;;;;;;;;14.75;10.25;;;;;7.19;73.73;100661.81;5021514;28;45523;-55
2021/12/07 10:33:42;;;;;;;;;18.00;13.25;;;;;7.21;74.13;100651.25;5020731;28;45264;-54
2021/12/07 10:36:19;;;;;;;;;14.25;11.25;;;;;7.22;73.86;100652.94;5021134;28;45248;-54
2021/12/07 10:39:07;;;;;;;;;13.00;13.00;;;;;7.22;73.92;100640.69;5021110;28;45400;-49
2021/12/07 10:41:39;;;;;;;;;17.25;14.00;;;;;7.23;74.17;100631.06;5020916;28;45484;-54
2021/12/07 10:44:13;;;;;;;;;23.75;15.75;;;;;7.23;74.35;100620.59;5021223;28;46876;-53
2021/12/07 10:46:41;;;;;;;;;23.00;15.00;;;;;7.26;74.42;100602.94;5020938;28;45313;-54
2021/12/07 10:49:26;;;;;;;;;18.00;15.50;;;;;7.30;74.54;100602.81;5021122;28;45368;-56
2021/12/07 10:52:11;;;;;;;;;19.25;14.50;;;;;7.35;74.43;100595.59;5021073;28;45469;-53
2021/12/07 10:54:47;;;;;;;;;17.00;15.50;;;;;7.38;74.68;100575.31;5020619;28;45460;-52
2021/12/07 10:57:21;;;;;;;;;16.75;14.25;;;;;7.43;74.52;100568.09;5020433;28;45330;-55
2021/12/07 11:00:07;;;;;;;;;19.25;15.25;;;;;7.44;74.42;100561.06;5020864;28;45371;-54
2021/12/07 11:02:36;;;;;;;;;29.50;16.00;;;;;7.44;74.72;100551.44;5020863;28;45464;-53
2021/12/07 11:05:06;;;;;;;;;22.50;17.75;;;;;7.47;74.79;100545.19;5020544;28;46287;-55
2021/12/07 11:07:31;;;;;;;;;21.00;15.50;;;;;7.51;74.69;100539.72;5020568;28;45479;-53
2021/12/07 11:10:15;;;;;;;;;24.75;18.00;;;;;7.60;74.53;100525.31;5020951;28;45296;-55
2021/12/07 11:13:05;;;;;;;;;29.25;20.00;;;;;7.65;74.67;100507.56;5020677;28;45233;-53
2021/12/07 11:15:34;;;;;;;;;20.50;19.00;;;;;7.73;74.66;100488.81;5020474;28;45345;-55
2021/12/07 11:17:59;;;;;;;;;20.00;19.00;;;;;7.79;74.69;100478.00;5022384;28;45359;-60
2021/12/07 11:20:26;;;;;;;;;31.50;14.75;;;;;7.82;74.29;100468.22;5023222;28;45651;-62
2021/12/07 11:23:00;;;;;;;;;23.25;20.75;;;;;7.87;74.44;100454.03;5019204;28;45363;-64
2021/12/07 11:31:24;;;;;;;;;25.00;18.00;;;;;8.03;73.82;100416.41;5008502;28;45385;-64
2021/12/07 11:33:54;;;;;;;;;21.50;16.75;;;;;8.06;74.08;100403.13;5016850;28;45483;-63
2021/12/07 11:36:26;;;;;;;;;15.50;12.75;;;;;8.11;73.91;100405.50;5005246;28;45322;-63
2021/12/07 11:38:54;;;;;;;;;17.25;12.00;;;;;8.14;73.47;100394.84;5004369;28;45403;-63
2021/12/07 11:41:24;;;;;;;;;14.75;11.00;;;;;8.18;73.45;100385.03;5012849;28;45340;-62
2021/12/07 11:43:57;;;;;;;;;19.25;15.00;;;;;8.25;73.48;100378.50;5013386;28;45884;-63
2021/12/07 11:46:24;;;;;;;;;16.50;11.00;;;;;8.30;73.17;100372.09;5010707;28;45230;-62
2021/12/07 11:49:07;;;;;;;;;13.00;10.00;;;;;8.35;73.13;100367.44;5015513;28;45468;-62
2021/12/07 11:51:33;;;;;;;;;10.00;8.00;;;;;8.39;73.15;100358.47;5019862;28;45388;-63
2021/12/07 11:53:58;;;;;;;;;15.25;11.25;;;;;8.44;73.11;100345.06;5015550;28;45310;-63
2021/12/07 11:56:24;;;;;;;;;9.00;8.75;;;;;8.49;72.90;100350.06;5023023;28;45645;-63
2021/12/07 11:58:49;;;;;;;;;12.50;8.00;;;;;8.54;73.03;100340.16;5016515;28;45260;-63
2021/12/07 12:01:15;;;;;;;;;11.75;10.00;;;;;8.55;72.57;100324.31;5019601;28;45320;-64
2021/12/07 12:03:40;;;;;;;;;15.00;9.50;;;;;8.57;72.56;100306.69;5015586;28;45253;-62
2021/12/07 12:06:07;;;;;;;;;6.25;6.25;;;;;8.61;72.52;100302.09;5019515;28;45846;-62
2021/12/07 12:08:32;;;;;;;;;12.75;7.75;;;;;8.65;72.53;100293.97;5014933;28;45327;-61
2021/12/07 12:11:21;;;;;;;;;8.50;7.50;;;;;8.70;72.42;100282.38;5019455;28;45371;-61
2021/12/07 12:14:23;;;;;;;;;9.25;7.25;;;;;8.71;72.36;100284.06;5018616;28;45277;-63
2021/12/07 12:16:58;;;;;;;;;10.25;8.50;;;;;8.66;72.34;100271.19;5016589;28;46143;-61
2021/12/07 12:19:36;;;;;;;;;10.50;6.50;;;;;8.61;71.96;100266.22;5028357;28;45292;-62
2021/12/07 12:22:14;;;;;;;;;10.00;7.00;;;;;8.63;72.09;100272.22;5010810;28;45307;-62
2021/12/07 12:24:52;;;;;;;;;6.75;5.75;;;;;8.63;72.04;100260.88;5018782;28;45301;-61
2021/12/07 12:27:20;;;;;;;;;8.25;6.00;;;;;8.65;72.37;100257.22;5041005;28;45484;-62
2021/12/07 12:29:50;;;;;;;;;9.75;7.25;;;;;8.67;72.08;100225.59;5039726;28;45359;-62
2021/12/07 12:32:30;;;;;;;;;7.00;6.75;;;;;8.72;72.11;100215.69;5029210;28;45343;-62
2021/12/07 12:34:56;;;;;;;;;5.75;0.75;;;;;8.73;71.96;100216.53;5017008;28;45275;-62
2021/12/07 12:37:26;;;;;;;;;6.50;6.00;;;;;8.70;71.87;100201.81;5039697;28;45443;-62
2021/12/07 12:39:57;;;;;;;;;11.00;7.00;;;;;8.69;71.89;100187.00;5040481;28;45426;-62
2021/12/07 12:42:31;;;;;;;;;7.25;6.50;;;;;8.69;71.93;100168.63;5027330;28;45348;-62
2021/12/07 12:44:58;;;;;;;;;5.75;3.00;;;;;8.71;72.04;100158.88;5029351;28;45556;-62
2021/12/07 12:47:30;;;;;;;;;7.50;6.00;;;;;8.75;72.00;100147.22;5028287;28;45562;-62
2021/12/07 12:50:08;;;;;;;;;6.50;5.75;;;;;8.76;72.05;100145.44;5027361;28;45385;-62
2021/12/07 12:52:53;;;;;;;;;10.00;8.00;;;;;8.78;72.04;100127.81;5029775;28;45584;-62
2021/12/07 12:55:29;;;;;;;;;11.75;7.50;;;;;8.79;71.79;100124.25;5027170;28;45557;-62
2021/12/07 12:57:55;;;;;;;;;11.00;6.50;;;;;8.80;71.60;100099.69;5028394;28;45496;-62
2021/12/07 13:00:22;;;;;;;;;5.00;3.50;;;;;8.82;71.41;100097.78;5029555;28;45487;-62
2021/12/07 13:02:54;;;;;;;;;10.25;3.00;;;;;8.83;71.56;100087.19;5028709;28;45467;-62
2021/12/07 13:05:36;;;;;;;;;3.00;3.00;;;;;8.86;71.46;100094.91;5022114;28;45278;-62
2021/12/07 13:08:18;;;;;;;;;1.00;0.00;;;;;8.85;71.75;100089.75;5021853;28;45293;-62
2021/12/07 13:11:03;;;;;;;;;8.00;6.25;;;;;8.86;71.60;100070.41;5022270;28;45344;-62
2021/12/07 13:13:34;;;;;;;;;8.75;3.00;;;;;8.88;71.32;100093.00;5022276;28;45240;-62